• Join FlightAware (Why Join?)
  • Login
  • US Flag 
11:37PM EDT


 

Airport Tracker/Info


-or-


 

Live Flight TrackerFlight Track Log ✈ EJA922 ✈ 17-Jan-2014 ✈ KSMF - F70

Flight Track Log - Related Links

Times and Time Zones

All times are in EST time to prevent confusion due to time zone crossing. See the EJA922 flight status page for this flight to view local times or setup timezone preferences in your user account.

Time Position Orientation Groundspeed Altitude Reporting Facility
EST Latitude Longitude Course Direction KTS MPH feet Rate Location/Type
12:39PM 38.6500 -121.5833 145° Southeast 224 258 3,500  Level Northern Cal TRACON
12:40PM 38.6000 -121.5000 127° Southeast 271 312 6,700 2,760 Climbing Northern Cal TRACON
12:42PM 38.5072 -121.3011 121° Southeast 316 364 12,400 2,460 Climbing Oakland Center
12:43PM 38.4581 -121.1883 119° Southeast 351 404 14,700 2,220 Climbing Oakland Center
12:44PM 38.1586 -121.0871 145° Southeast  Level Estimated
12:44PM 38.4042 -121.0678 120° Southeast 375 432 17,000  Level Oakland Center
12:45PM 38.3494 -120.9467 120° Southeast 395 455 18,600 1,740 Climbing Oakland Center
12:46PM 38.2928 -120.8211 120° Southeast 407 468 20,600 1,800 Climbing Oakland Center
12:47PM 38.2328 -120.6928 121° Southeast 422 486 22,300 1,800 Climbing Oakland Center
12:48PM 38.1397 -120.5950 140° Southeast 434 499 24,300 1,920 Climbing Oakland Center
12:49PM 38.0428 -120.4994 142° Southeast 442 509 26,300 1,800 Climbing Oakland Center
12:50PM 37.9431 -120.4031 143° Southeast 451 519 28,100 1,320 Climbing Oakland Center
12:51PM 37.8408 -120.3019 142° Southeast 465 535 29,000 420 Climbing Oakland Center
12:52PM 37.7050 -120.1711 143° Southeast 511 588 29,000 780 Level Oakland Center
12:53PM 37.5894 -120.0614 143° Southeast 520 598 30,700 1,620 Climbing Oakland Center
12:54PM 37.4797 -119.9531 142° Southeast 505 581 32,400 1,080 Climbing Oakland Center
12:55PM 37.3644 -119.8456 143° Southeast 513 590 33,000 900 Climbing Oakland Center
12:56PM 37.2303 -119.7628 154° Southeast 517 595 34,300 1,440 Climbing Oakland Center
12:57PM 37.1008 -119.6936 157° South 507 583 36,000 1,260 Climbing Oakland Center
12:58PM 36.9717 -119.6267 158° South 504 580 36,900 480 Climbing Oakland Center
12:59PM 36.8403 -119.5567 157° South 512 589 37,000  Climbing Oakland Center
01:00PM 36.7064 -119.4864 157° South 520 598 37,000  Level Oakland Center
01:01PM 36.5744 -119.4167 157° South 515 593 37,000 -60 Level Oakland Center
01:02PM 36.4161 -119.3350 157° South 514 592 36,900  Descending Oakland Center
01:03PM 36.2828 -119.2653 157° South 517 595 37,000  Climbing Oakland Center
01:04PM 36.1503 -119.1967 157° South 516 594 37,000  Level Oakland Center
01:05PM 36.0181 -119.1281 157° South 515 593 37,000  Level Oakland Center
01:06PM 35.8850 -119.0603 158° South 514 592 37,000 -240 Level Oakland Center
01:07PM 35.7519 -118.9911 157° South 516 594 36,600 -840 Descending Oakland Center
01:08PM 35.6214 -118.9250 158° South 508 585 35,300 -1,500 Descending Los Angeles Center
01:10PM 35.4686 -118.8469 157° South 497 572 33,500 -1,380 Descending Los Angeles Center
01:11PM 35.3375 -118.7808 158° South 504 580 32,500 -960 Descending Los Angeles Center
01:12PM 35.2039 -118.7131 157° South 514 592 31,500 -960 Descending Los Angeles Center
01:13PM 35.0694 -118.6456 158° South 520 598 30,500 -960 Descending Los Angeles Center
01:14PM 34.9558 -118.5339 141° Southeast 529 609 29,600 -1,200 Descending Los Angeles Center
01:15PM 34.8536 -118.3856 130° Southeast 527 606 28,100 -2,160 Descending Los Angeles Center
01:16PM 34.7642 -118.2561 130° Southeast 509 586 25,200 -2,760 Descending Los Angeles Center
01:17PM 34.6786 -118.1342 130° Southeast 483 556 22,500 -2,280 Descending Los Angeles Center
01:18PM 34.6064 -118.0106 125° Southeast 456 525 20,500 -2,100 Descending Los Angeles Center
01:19PM 34.5319 -117.8494 119° Southeast 460 529 18,200 -1,740 Descending Los Angeles Center
01:20PM 34.4719 -117.7172 119° Southeast 453 521 17,000 -1,320 Descending Los Angeles Center
01:21PM 34.4142 -117.5917 119° Southeast 434 499 15,500 -1,680 Descending Los Angeles Center
01:22PM 34.3503 -117.4517 119° Southeast 419 482 13,600 -1,500 Descending Los Angeles Center
01:23PM 34.2814 -117.3472 129° Southeast 401 461 12,400 -1,080 Descending Los Angeles Center
01:24PM 34.1969 -117.2889 150° Southeast 346 398 11,400 -1,020 Descending Los Angeles Center
01:25PM 34.1222 -117.2472 155° Southeast 303 349 10,400 -1,020 Descending Los Angeles Center
01:26PM 34.0506 -117.2058 154° Southeast 288 331 9,400 -1,020 Descending Los Angeles Center
01:27PM 33.9739 -117.1611 154° Southeast 281 323 8,300 -1,380 Descending Los Angeles Center
01:28PM 33.9061 -117.1214 154° Southeast 274 315 6,600 -1,140 Descending Los Angeles Center
01:29PM 33.8469 -117.0869 154° Southeast 263 303 6,000 -480 Descending Los Angeles Center
01:30PM 33.7644 -117.0772 174° South 259 298 5,700 -720 Descending Los Angeles Center
01:31PM 33.7022 -117.0928 192° South 251 289 4,600 -1,080 Descending Los Angeles Center
01:33PM 33.5667 -117.1167 157° South  Level FlightAware Approximate
01:40PM 33.5742 -117.1285 157° South  Level Estimated
01:41PM 33.5742 -117.1285 157° South  Level Estimated
01:42PM 33.5742 -117.1285 157° South  Level Estimated